createdAt,value
2017-11-29T00:00:57.308Z,0
2017-11-29T00:02:07.064Z,0
2017-11-29T00:03:16.816Z,0
2017-11-29T00:04:26.577Z,0
2017-11-29T00:05:36.634Z,0
2017-11-29T00:06:46.649Z,0
2017-11-29T00:07:56.663Z,0
2017-11-29T00:09:06.682Z,0
2017-11-29T00:10:15.628Z,0
2017-11-29T00:11:25.415Z,0
2017-11-29T00:12:34.900Z,0
2017-11-29T00:13:44.675Z,0
2017-11-29T00:14:54.423Z,0
2017-11-29T00:16:04.472Z,0
2017-11-29T00:17:14.490Z,0
2017-11-29T00:18:24.239Z,0
2017-11-29T00:19:34.274Z,0
2017-11-29T00:20:44.051Z,0
2017-11-29T00:21:53.531Z,0
2017-11-29T00:23:03.560Z,0
2017-11-29T00:24:13.576Z,0
2017-11-29T00:25:23.590Z,0
2017-11-29T00:26:33.662Z,0
2017-11-29T00:27:43.406Z,0
2017-11-29T00:28:53.182Z,0
2017-11-29T00:30:02.942Z,0
2017-11-29T00:31:12.684Z,0
2017-11-29T00:32:22.495Z,0
2017-11-29T00:33:31.968Z,0
2017-11-29T00:34:41.975Z,0
2017-11-29T00:35:52.001Z,0
2017-11-29T00:37:01.480Z,0
2017-11-29T00:38:10.964Z,0
2017-11-29T00:39:20.999Z,0
2017-11-29T00:40:31.053Z,0
2017-11-29T00:41:41.067Z,0
2017-11-29T00:42:50.836Z,0
2017-11-29T00:44:00.307Z,0
2017-11-29T00:45:10.061Z,0
2017-11-29T00:46:19.801Z,0
2017-11-29T00:47:29.551Z,0
2017-11-29T00:48:39.592Z,0
2017-11-29T00:49:49.615Z,0
2017-11-29T00:50:59.607Z,0
2017-11-29T00:52:09.369Z,0
2017-11-29T00:53:19.111Z,0
2017-11-29T00:54:29.141Z,0
2017-11-29T00:55:39.154Z,0
2017-11-29T00:56:49.186Z,0
2017-11-29T00:57:58.925Z,0
2017-11-29T00:59:09.044Z,0
2017-11-29T01:00:18.797Z,0
2017-11-29T01:01:28.798Z,0
2017-11-29T01:02:39.059Z,0
2017-11-29T01:03:49.076Z,0
2017-11-29T01:04:58.832Z,0
2017-11-29T01:06:08.589Z,0
2017-11-29T01:07:18.129Z,0
2017-11-29T01:08:27.874Z,0
2017-11-29T01:09:37.880Z,0
2017-11-29T01:10:47.896Z,0
2017-11-29T01:11:57.894Z,0
2017-11-29T01:13:07.888Z,0
2017-11-29T01:14:17.904Z,0
2017-11-29T01:15:27.918Z,0
2017-11-29T01:16:37.686Z,0
2017-11-29T01:17:47.762Z,0
2017-11-29T01:18:57.815Z,0
2017-11-29T01:20:07.566Z,0
2017-11-29T01:21:17.602Z,0
2017-11-29T01:22:27.353Z,0
2017-11-29T01:23:37.487Z,0
2017-11-29T01:24:47.498Z,0
2017-11-29T01:25:56.990Z,0
2017-11-29T01:27:06.472Z,0
2017-11-29T01:28:16.484Z,0
2017-11-29T01:29:25.710Z,0
2017-11-29T01:30:35.459Z,0
2017-11-29T01:31:45.214Z,0
2017-11-29T01:32:54.965Z,0
2017-11-29T01:34:04.982Z,0
2017-11-29T01:35:14.724Z,0
2017-11-29T01:36:24.513Z,0
2017-11-29T01:37:34.376Z,0
2017-11-29T01:38:44.184Z,0
2017-11-29T01:39:54.002Z,0
2017-11-29T01:41:03.829Z,0
2017-11-29T01:42:13.923Z,0
2017-11-29T01:43:24.015Z,0
2017-11-29T01:44:33.864Z,0
2017-11-29T01:45:43.654Z,0
2017-11-29T01:46:53.722Z,0
2017-11-29T01:48:03.800Z,0
2017-11-29T01:49:13.604Z,0
2017-11-29T01:50:23.738Z,0
2017-11-29T01:51:33.534Z,0
2017-11-29T01:52:43.613Z,0
2017-11-29T01:53:53.736Z,0
2017-11-29T01:55:03.539Z,0
2017-11-29T01:56:13.395Z,0
2017-11-29T01:57:23.475Z,0
2017-11-29T01:58:33.300Z,0
2017-11-29T01:59:43.126Z,0
2017-11-29T02:00:52.393Z,0
2017-11-29T02:02:01.942Z,0
2017-11-29T02:03:12.023Z,0
2017-11-29T02:04:21.829Z,0
2017-11-29T02:05:31.897Z,0
2017-11-29T02:06:41.718Z,0
2017-11-29T02:07:51.798Z,0
2017-11-29T02:09:01.066Z,0
2017-11-29T02:10:10.898Z,0
2017-11-29T02:11:20.988Z,0
2017-11-29T02:12:31.061Z,0
2017-11-29T02:13:40.914Z,0
2017-11-29T02:14:50.719Z,0
2017-11-29T02:16:00.267Z,0
2017-11-29T02:17:10.077Z,0
2017-11-29T02:18:20.182Z,0
2017-11-29T02:19:29.754Z,0
2017-11-29T02:20:39.832Z,0
2017-11-29T02:21:49.659Z,0
2017-11-29T02:22:59.196Z,0
2017-11-29T02:24:09.504Z,0
2017-11-29T02:25:19.356Z,0
2017-11-29T02:26:29.161Z,0
2017-11-29T02:27:39.233Z,0
2017-11-29T02:28:48.813Z,0
2017-11-29T02:29:58.894Z,0
2017-11-29T02:31:09.028Z,0
2017-11-29T02:32:19.135Z,0
2017-11-29T02:33:29.210Z,0
2017-11-29T02:34:39.303Z,0
2017-11-29T02:35:49.386Z,0
2017-11-29T02:36:59.211Z,0
2017-11-29T02:38:09.006Z,0
2017-11-29T02:39:19.124Z,0
2017-11-29T02:40:28.937Z,0
2017-11-29T02:41:39.020Z,0
2017-11-29T02:42:49.167Z,0
2017-11-29T02:43:58.988Z,0
2017-11-29T02:45:08.535Z,0
2017-11-29T02:46:18.631Z,0
2017-11-29T02:47:28.447Z,0
2017-11-29T02:48:37.981Z,0
2017-11-29T02:49:47.782Z,0
2017-11-29T02:50:57.584Z,0
2017-11-29T02:52:07.675Z,0
2017-11-29T02:53:17.766Z,0
2017-11-29T02:54:27.937Z,0
2017-11-29T02:55:37.778Z,0
2017-11-29T02:56:47.876Z,0
2017-11-29T02:57:57.974Z,0
2017-11-29T02:59:07.511Z,0
2017-11-29T03:00:17.584Z,0
2017-11-29T03:01:27.664Z,0
2017-11-29T03:02:37.217Z,0
2017-11-29T03:33:54.251Z,0
2017-11-29T03:35:04.341Z,0
2017-11-29T03:36:14.404Z,0
2017-11-29T03:37:24.214Z,0
2017-11-29T03:38:33.748Z,0
2017-11-29T03:39:43.830Z,0
2017-11-29T03:40:53.644Z,0
2017-11-29T03:42:03.180Z,0
2017-11-29T03:43:12.727Z,0
2017-11-29T03:44:23.453Z,0
2017-11-29T03:45:33.319Z,0
2017-11-29T03:46:43.131Z,0
2017-11-29T03:47:53.198Z,0
2017-11-29T03:49:03.258Z,0
2017-11-29T03:50:13.326Z,0
2017-11-29T03:51:23.449Z,0
2017-11-29T03:52:33.510Z,0
2017-11-29T03:53:43.353Z,0
2017-11-29T03:54:53.395Z,0
2017-11-29T03:56:03.210Z,0
2017-11-29T03:57:13.340Z,0
2017-11-29T03:58:23.414Z,0
2017-11-29T03:59:33.222Z,0
2017-11-29T04:00:43.035Z,0
2017-11-29T04:01:54.459Z,0
2017-11-29T04:03:04.606Z,0
2017-11-29T04:04:14.141Z,0
2017-11-29T04:05:23.928Z,0
2017-11-29T04:06:34.013Z,0
2017-11-29T04:07:44.092Z,0
2017-11-29T04:08:54.175Z,0
2017-11-29T04:10:04.282Z,0
2017-11-29T04:11:14.359Z,0
2017-11-29T04:12:24.437Z,0
2017-11-29T04:13:34.528Z,0
2017-11-29T04:14:44.369Z,0
2017-11-29T04:15:54.450Z,0
2017-11-29T04:17:04.531Z,0
2017-11-29T04:18:14.611Z,0
2017-11-29T04:19:24.428Z,0
2017-11-29T04:20:34.568Z,0
2017-11-29T04:21:44.114Z,0
2017-11-29T04:22:54.207Z,0
2017-11-29T04:24:04.032Z,0
2017-11-29T04:25:14.116Z,0
2017-11-29T04:26:23.718Z,0
2017-11-29T04:27:33.519Z,0
2017-11-29T04:28:43.590Z,0
2017-11-29T04:29:53.402Z,0
2017-11-29T04:31:03.477Z,0
2017-11-29T04:32:13.285Z,0
2017-11-29T04:33:23.372Z,0
2017-11-29T04:34:33.191Z,0
2017-11-29T04:35:43.269Z,0
2017-11-29T04:36:52.825Z,0
2017-11-29T04:38:02.688Z,0
2017-11-29T04:39:13.176Z,0
2017-11-29T04:40:22.984Z,0
2017-11-29T04:41:32.780Z,0
2017-11-29T04:42:42.862Z,0
2017-11-29T04:43:52.719Z,0
2017-11-29T04:45:02.798Z,0
2017-11-29T04:46:12.340Z,0
2017-11-29T04:47:22.415Z,0
2017-11-29T04:48:32.225Z,0
2017-11-29T04:49:41.786Z,0
2017-11-29T04:50:51.610Z,0
2017-11-29T04:52:01.155Z,0
2017-11-29T04:53:10.969Z,0
2017-11-29T04:54:21.078Z,0
2017-11-29T04:55:31.147Z,0
2017-11-29T04:56:42.225Z,0
2017-11-29T04:57:51.761Z,0
2017-11-29T04:59:01.835Z,0
2017-11-29T05:00:11.907Z,0
2017-11-29T05:01:22.091Z,0
2017-11-29T05:02:31.901Z,0
2017-11-29T05:03:41.971Z,0
2017-11-29T05:04:51.775Z,0
2017-11-29T05:06:01.065Z,0
2017-11-29T05:07:11.137Z,0
2017-11-29T05:08:21.205Z,0
2017-11-29T05:09:31.282Z,0
2017-11-29T05:10:41.359Z,0
2017-11-29T05:11:51.186Z,0
2017-11-29T05:13:01.308Z,0
2017-11-29T05:14:11.313Z,0
2017-11-29T05:15:21.130Z,0
2017-11-29T05:16:31.216Z,0
2017-11-29T05:17:41.301Z,0
2017-11-29T05:18:51.181Z,0
2017-11-29T05:20:01.271Z,0
2017-11-29T05:21:10.832Z,0
2017-11-29T05:22:20.891Z,0
2017-11-29T05:23:30.955Z,0
2017-11-29T05:24:41.029Z,0
2017-11-29T05:25:51.108Z,0
2017-11-29T05:27:01.217Z,0
2017-11-29T05:28:11.011Z,0
2017-11-29T05:29:20.299Z,0
2017-11-29T05:30:30.160Z,0
2017-11-29T05:31:39.970Z,0
2017-11-29T05:32:49.782Z,0
2017-11-29T05:33:59.577Z,0
2017-11-29T05:35:08.869Z,0
2017-11-29T05:36:18.726Z,0
2017-11-29T05:37:28.796Z,0
2017-11-29T05:38:38.873Z,0
2017-11-29T05:39:48.948Z,0
2017-11-29T05:40:59.014Z,0
2017-11-29T05:42:09.149Z,0
2017-11-29T05:43:19.228Z,0
2017-11-29T05:44:29.033Z,0
2017-11-29T05:45:39.115Z,0
2017-11-29T05:46:48.936Z,0
2017-11-29T05:47:59.053Z,0
2017-11-29T05:49:09.152Z,0
2017-11-29T05:50:19.245Z,0
2017-11-29T05:51:29.043Z,0
2017-11-29T05:52:39.153Z,0
2017-11-29T05:53:48.707Z,0
2017-11-29T05:54:58.253Z,0
2017-11-29T05:56:09.551Z,0
2017-11-29T05:57:19.096Z,0
2017-11-29T05:58:29.182Z,0
2017-11-29T05:59:39.251Z,0
2017-11-29T06:00:49.950Z,0
2017-11-29T06:02:00.020Z,0
2017-11-29T06:03:10.121Z,0
2017-11-29T06:04:20.206Z,0
2017-11-29T06:05:30.087Z,0
2017-11-29T06:06:40.173Z,0
2017-11-29T06:07:49.988Z,0
2017-11-29T06:09:00.083Z,0
2017-11-29T06:10:10.183Z,0
2017-11-29T06:11:20.292Z,0
2017-11-29T06:12:30.108Z,0
2017-11-29T06:13:40.165Z,0
2017-11-29T06:14:49.971Z,0
2017-11-29T06:16:00.040Z,0
2017-11-29T06:17:10.177Z,0
2017-11-29T06:18:20.263Z,0
2017-11-29T06:19:30.086Z,0
2017-11-29T06:20:39.638Z,0
2017-11-29T06:21:49.439Z,0
2017-11-29T06:22:59.511Z,0
2017-11-29T06:24:09.583Z,0
2017-11-29T06:25:19.655Z,0
2017-11-29T06:26:29.737Z,0
2017-11-29T06:27:39.370Z,0
2017-11-29T06:28:49.524Z,0
2017-11-29T06:29:59.339Z,0
2017-11-29T06:31:09.404Z,0
2017-11-29T06:32:19.486Z,0
2017-11-29T06:33:29.303Z,0
2017-11-29T06:34:38.841Z,0
2017-11-29T06:35:48.650Z,0
2017-11-29T06:36:58.436Z,0
2017-11-29T06:38:07.722Z,0
2017-11-29T06:39:17.810Z,5
2017-11-29T06:40:27.623Z,5
2017-11-29T06:41:37.974Z,5
2017-11-29T06:42:48.043Z,5
2017-11-29T06:43:58.120Z,5
2017-11-29T06:45:08.200Z,5
2017-11-29T06:46:18.308Z,5
2017-11-29T06:47:28.144Z,5
2017-11-29T06:48:37.707Z,10
2017-11-29T06:49:47.794Z,10
2017-11-29T06:50:57.930Z,10
2017-11-29T06:52:08.071Z,10
2017-11-29T06:53:17.881Z,10
2017-11-29T06:54:27.968Z,10
2017-11-29T06:55:38.059Z,10
2017-11-29T06:56:48.122Z,10
2017-11-29T06:57:57.666Z,10
2017-11-29T06:59:07.491Z,10
2017-11-29T07:00:17.579Z,10
2017-11-29T07:01:27.679Z,10
2017-11-29T07:02:37.492Z,10
2017-11-29T07:03:47.297Z,10
2017-11-29T07:04:57.377Z,10
2017-11-29T07:06:07.444Z,10
2017-11-29T07:07:17.521Z,10
2017-11-29T07:08:27.597Z,10
2017-11-29T07:09:37.681Z,15
2017-11-29T07:10:47.758Z,15
2017-11-29T07:11:57.817Z,15
2017-11-29T07:13:07.887Z,15
2017-11-29T07:14:17.698Z,15
2017-11-29T07:15:27.239Z,15
2017-11-29T07:16:37.314Z,15
2017-11-29T07:17:47.454Z,20
2017-11-29T07:18:57.270Z,20
2017-11-29T07:20:07.094Z,20
2017-11-29T07:21:17.175Z,20
2017-11-29T07:22:27.263Z,20
2017-11-29T07:23:36.804Z,25
2017-11-29T07:24:46.951Z,25
2017-11-29T07:25:56.769Z,25
2017-11-29T07:27:06.586Z,25
2017-11-29T07:28:16.668Z,25
2017-11-29T07:29:26.746Z,25
2017-11-29T07:30:36.552Z,25
2017-11-29T07:31:46.426Z,25
2017-11-29T07:32:56.499Z,25
2017-11-29T07:34:06.576Z,25
2017-11-29T07:35:16.660Z,25
2017-11-29T07:36:26.537Z,25
2017-11-29T07:37:36.355Z,25
2017-11-29T07:38:45.910Z,25
2017-11-29T07:39:55.993Z,25
2017-11-29T07:41:05.548Z,25
2017-11-29T07:42:15.627Z,25
2017-11-29T07:43:25.162Z,25
2017-11-29T07:44:34.970Z,25
2017-11-29T07:45:44.771Z,25
2017-11-29T07:46:54.569Z,25
2017-11-29T07:48:04.411Z,25
2017-11-29T07:49:14.486Z,25
2017-11-29T07:50:24.293Z,25
2017-11-29T07:51:34.112Z,30
2017-11-29T07:52:44.176Z,30
2017-11-29T07:53:53.718Z,30
2017-11-29T07:55:03.329Z,30
2017-11-29T07:56:13.182Z,30
2017-11-29T07:57:23.252Z,35
2017-11-29T07:58:33.337Z,35
2017-11-29T07:59:42.632Z,35
2017-11-29T08:00:52.717Z,35
2017-11-29T08:02:02.806Z,35
2017-11-29T08:03:12.620Z,35
2017-11-29T08:04:22.683Z,40
2017-11-29T08:05:32.506Z,45
2017-11-29T08:06:42.576Z,45
2017-11-29T08:07:52.185Z,45
2017-11-29T08:09:02.619Z,45
2017-11-29T08:10:12.843Z,45
2017-11-29T08:11:22.940Z,50
2017-11-29T08:12:33.014Z,50
2017-11-29T08:13:43.161Z,50
2017-11-29T08:14:53.231Z,50
2017-11-29T08:16:02.789Z,55
2017-11-29T08:17:12.592Z,60
2017-11-29T08:18:22.400Z,65
2017-11-29T08:19:32.487Z,70
2017-11-29T08:20:42.555Z,70
2017-11-29T08:21:52.629Z,75
2017-11-29T08:23:02.695Z,80
2017-11-29T08:24:12.770Z,85
2017-11-29T08:25:22.590Z,85
2017-11-29T08:26:32.667Z,90
2017-11-29T08:27:42.749Z,85
2017-11-29T08:28:52.893Z,80
2017-11-29T08:30:02.983Z,75
2017-11-29T08:31:13.067Z,70
2017-11-29T08:32:22.892Z,70
2017-11-29T08:33:32.767Z,70
2017-11-29T08:34:42.840Z,65
2017-11-29T08:35:52.388Z,65
2017-11-29T08:37:02.478Z,65
2017-11-29T08:38:12.269Z,65
2017-11-29T08:39:22.078Z,65
2017-11-29T08:40:31.882Z,65
2017-11-29T08:41:41.968Z,65
2017-11-29T08:42:51.790Z,65
2017-11-29T08:44:01.864Z,65
2017-11-29T08:45:11.958Z,65
2017-11-29T08:46:21.767Z,70
2017-11-29T08:47:31.593Z,70
2017-11-29T08:48:41.397Z,70
2017-11-29T08:49:51.458Z,70
2017-11-29T08:51:01.278Z,65
2017-11-29T08:52:11.147Z,65
2017-11-29T08:53:21.222Z,65
2017-11-29T08:54:31.288Z,65
2017-11-29T08:55:41.357Z,65
2017-11-29T08:56:51.438Z,65
2017-11-29T08:58:01.302Z,60
2017-11-29T08:59:10.837Z,60
2017-11-29T09:00:21.802Z,60
2017-11-29T09:01:31.890Z,60
2017-11-29T09:02:41.707Z,55
2017-11-29T09:03:51.785Z,55
2017-11-29T09:05:01.855Z,55
2017-11-29T09:06:11.685Z,55
2017-11-29T09:07:21.525Z,60
2017-11-29T09:08:31.643Z,60
2017-11-29T09:09:41.786Z,60
2017-11-29T09:10:51.355Z,60
2017-11-29T09:12:01.172Z,60
2017-11-29T09:13:10.963Z,50
2017-11-29T09:14:21.020Z,45
2017-11-29T09:15:31.155Z,45
2017-11-29T09:16:40.964Z,35
2017-11-29T09:17:51.045Z,35
2017-11-29T09:19:00.591Z,30
2017-11-29T09:20:10.662Z,35
2017-11-29T09:21:20.483Z,40
2017-11-29T09:22:30.597Z,45
2017-11-29T09:23:40.683Z,50
2017-11-29T09:24:50.805Z,50
2017-11-29T09:26:00.892Z,50
2017-11-29T09:27:10.444Z,50
2017-11-29T09:28:20.259Z,50
2017-11-29T09:29:30.355Z,55
2017-11-29T09:30:40.173Z,50
2017-11-29T09:31:50.256Z,50
2017-11-29T09:32:59.795Z,50
2017-11-29T09:34:09.873Z,45
2017-11-29T09:35:19.417Z,45
2017-11-29T09:36:29.239Z,45
2017-11-29T09:37:39.320Z,50
2017-11-29T09:38:49.407Z,55
2017-11-29T09:39:59.484Z,55
2017-11-29T09:41:09.548Z,60
2017-11-29T09:42:19.153Z,60
2017-11-29T09:43:29.213Z,60
2017-11-29T09:44:39.304Z,60
2017-11-29T09:45:49.361Z,65
2017-11-29T09:46:58.908Z,70
2017-11-29T09:48:08.736Z,80
2017-11-29T09:49:18.797Z,80
2017-11-29T09:50:28.612Z,85
2017-11-29T09:51:38.718Z,85
2017-11-29T09:52:48.810Z,85
2017-11-29T09:53:58.890Z,80
2017-11-29T09:55:08.692Z,75
2017-11-29T09:56:18.799Z,70
2017-11-29T09:57:28.678Z,65
2017-11-29T09:58:38.766Z,55
2017-11-29T09:59:48.388Z,50
2017-11-29T10:00:58.196Z,50
2017-11-29T10:02:08.018Z,50
2017-11-29T10:03:17.564Z,55
2017-11-29T10:04:27.655Z,55
2017-11-29T10:05:37.508Z,60
2017-11-29T10:06:47.361Z,65
2017-11-29T10:07:56.916Z,75
2017-11-29T10:09:06.501Z,85
2017-11-29T10:10:15.513Z,95
2017-11-29T10:11:25.121Z,105
2017-11-29T10:12:34.947Z,110
2017-11-29T10:13:44.784Z,110
2017-11-29T10:14:54.602Z,110
2017-11-29T10:16:04.144Z,105
2017-11-29T10:17:14.013Z,90
2017-11-29T10:18:24.112Z,80
2017-11-29T10:19:33.675Z,80
2017-11-29T10:20:43.729Z,70
2017-11-29T10:21:55.070Z,50
2017-11-29T10:23:04.939Z,45
2017-11-29T10:24:14.750Z,40
2017-11-29T10:25:24.549Z,40
2017-11-29T10:26:34.399Z,40
2017-11-29T10:27:44.472Z,40
2017-11-29T10:28:54.572Z,40
2017-11-29T10:30:04.673Z,40
2017-11-29T10:31:14.742Z,40
2017-11-29T10:32:24.555Z,40
2017-11-29T10:33:34.088Z,40
2017-11-29T10:34:44.239Z,50
2017-11-29T10:35:54.326Z,60
2017-11-29T10:37:04.448Z,60
2017-11-29T10:38:14.756Z,60
2017-11-29T10:39:24.579Z,60
2017-11-29T10:40:34.387Z,65
2017-11-29T10:41:43.946Z,75
2017-11-29T10:42:54.031Z,80
2017-11-29T10:44:03.585Z,85
2017-11-29T10:45:13.692Z,85
2017-11-29T10:46:23.814Z,80
2017-11-29T10:47:33.904Z,75
2017-11-29T10:48:43.992Z,65
2017-11-29T10:49:54.098Z,50
2017-11-29T10:51:03.636Z,45
2017-11-29T10:52:13.452Z,50
2017-11-29T10:53:23.537Z,50
2017-11-29T10:54:33.905Z,55
2017-11-29T10:55:43.993Z,55
2017-11-29T10:56:54.046Z,50
2017-11-29T10:58:04.423Z,50
2017-11-29T10:59:13.964Z,50
2017-11-29T11:00:23.788Z,50
2017-11-29T11:01:33.874Z,50
2017-11-29T11:02:43.983Z,50
2017-11-29T11:03:54.108Z,55
2017-11-29T11:05:03.930Z,55
2017-11-29T11:06:13.741Z,60
2017-11-29T11:07:23.536Z,60
2017-11-29T11:08:33.618Z,65
2017-11-29T11:09:42.948Z,70
2017-11-29T11:10:52.656Z,75
2017-11-29T11:12:02.521Z,80
2017-11-29T11:13:12.598Z,80
2017-11-29T11:14:22.699Z,80
2017-11-29T11:15:33.410Z,75
2017-11-29T11:16:43.520Z,65
2017-11-29T11:17:53.492Z,60
2017-11-29T11:19:03.561Z,65
2017-11-29T11:20:13.114Z,75
2017-11-29T11:21:23.260Z,75
2017-11-29T11:22:33.071Z,80
2017-11-29T11:23:43.145Z,75
2017-11-29T11:24:52.982Z,65
2017-11-29T11:26:02.519Z,65
2017-11-29T11:27:12.414Z,75
2017-11-29T11:28:21.962Z,75
2017-11-29T11:29:31.775Z,60
2017-11-29T11:30:41.885Z,45
2017-11-29T11:31:51.956Z,40
2017-11-29T11:33:02.774Z,40
2017-11-29T11:34:12.870Z,40
2017-11-29T11:35:22.964Z,40
2017-11-29T11:36:33.072Z,35
2017-11-29T11:37:43.004Z,30
2017-11-29T11:38:53.032Z,30
2017-11-29T11:40:03.197Z,30
2017-11-29T11:41:13.093Z,35
2017-11-29T11:42:23.278Z,35
2017-11-29T11:43:33.445Z,35
2017-11-29T11:44:43.416Z,35
2017-11-29T11:45:53.510Z,40
2017-11-29T11:47:03.664Z,45
2017-11-29T11:48:13.486Z,55
2017-11-29T11:49:23.619Z,65
2017-11-29T11:50:33.762Z,70
2017-11-29T11:51:43.842Z,80
2017-11-29T11:52:55.019Z,85
2017-11-29T11:54:04.830Z,95
2017-11-29T11:55:14.642Z,100
2017-11-29T11:56:24.504Z,105
2017-11-29T11:57:34.300Z,95
2017-11-29T11:58:44.412Z,90
2017-11-29T11:59:53.958Z,90
2017-11-29T12:01:04.060Z,100
2017-11-29T12:02:14.142Z,105
2017-11-29T12:03:23.455Z,110
2017-11-29T12:04:33.551Z,110
2017-11-29T12:05:43.415Z,95
2017-11-29T12:06:53.051Z,90
2017-11-29T12:08:03.247Z,90
2017-11-29T12:09:12.893Z,85
2017-11-29T12:10:23.056Z,80
2017-11-29T12:11:33.267Z,75
2017-11-29T12:12:43.172Z,60
2017-11-29T12:13:53.392Z,50
2017-11-29T12:15:03.494Z,45
2017-11-29T12:16:13.380Z,40
2017-11-29T12:17:23.493Z,40
2017-11-29T12:18:33.593Z,50
2017-11-29T12:19:43.466Z,50
2017-11-29T12:20:53.600Z,50
2017-11-29T12:22:04.044Z,45
2017-11-29T12:23:13.864Z,45
2017-11-29T12:24:23.670Z,45
2017-11-29T12:25:33.536Z,50
2017-11-29T12:26:43.369Z,50
2017-11-29T12:27:53.534Z,55
2017-11-29T12:29:03.621Z,60
2017-11-29T12:30:13.712Z,65
2017-11-29T12:31:23.582Z,70
2017-11-29T12:32:33.418Z,75
2017-11-29T12:33:43.261Z,70
2017-11-29T12:34:53.112Z,60
2017-11-29T12:36:03.224Z,45
2017-11-29T12:37:13.111Z,35
2017-11-29T12:38:22.993Z,25
2017-11-29T12:39:33.219Z,20
2017-11-29T12:40:43.315Z,20
2017-11-29T12:41:53.406Z,20
2017-11-29T12:43:03.540Z,25
2017-11-29T12:44:13.100Z,25
2017-11-29T12:45:23.173Z,25
2017-11-29T12:46:33.246Z,25
2017-11-29T12:47:43.327Z,25
2017-11-29T12:48:53.173Z,25
2017-11-29T12:50:03.644Z,25
2017-11-29T12:51:13.713Z,25
2017-11-29T12:52:23.249Z,25
2017-11-29T12:53:33.341Z,25
2017-11-29T12:54:43.413Z,20
2017-11-29T12:55:52.954Z,25
2017-11-29T12:57:02.760Z,25
2017-11-29T12:58:12.851Z,25
2017-11-29T12:59:22.978Z,25
2017-11-29T13:00:32.575Z,25
2017-11-29T13:01:43.892Z,30
2017-11-29T13:02:53.990Z,30
2017-11-29T13:04:04.065Z,35
2017-11-29T13:05:13.862Z,40
2017-11-29T13:06:23.679Z,40
2017-11-29T13:07:33.510Z,35
2017-11-29T13:08:43.607Z,30
2017-11-29T13:09:53.795Z,30
2017-11-29T13:11:04.863Z,35
2017-11-29T13:12:14.993Z,40
2017-11-29T13:13:25.075Z,45
2017-11-29T13:14:34.951Z,50
2017-11-29T13:15:44.767Z,45
2017-11-29T13:16:54.891Z,40
2017-11-29T13:18:04.963Z,45
2017-11-29T13:19:14.773Z,40
2017-11-29T13:20:24.869Z,40
2017-11-29T13:21:34.961Z,40
2017-11-29T13:22:45.075Z,40
2017-11-29T13:23:55.206Z,40
2017-11-29T13:25:05.026Z,40
2017-11-29T13:26:15.728Z,40
2017-11-29T13:27:25.813Z,40
2017-11-29T13:28:35.876Z,40
2017-11-29T13:29:46.236Z,40
2017-11-29T13:30:56.349Z,45
2017-11-29T13:32:06.185Z,45
2017-11-29T13:33:16.048Z,45
2017-11-29T13:34:26.866Z,35
2017-11-29T13:35:37.053Z,35
2017-11-29T13:36:46.871Z,30
2017-11-29T13:37:56.712Z,25
2017-11-29T13:39:06.792Z,25
2017-11-29T13:40:16.874Z,20
2017-11-29T13:41:27.014Z,15
2017-11-29T13:42:37.116Z,10
2017-11-29T13:43:46.916Z,10
2017-11-29T13:44:56.761Z,10
2017-11-29T13:46:07.691Z,10
2017-11-29T13:47:24.479Z,10
2017-11-29T13:48:42.823Z,10
2017-11-29T13:49:58.095Z,15
2017-11-29T13:51:14.417Z,20
2017-11-29T13:52:28.718Z,20
2017-11-29T13:53:41.980Z,25
2017-11-29T13:54:52.810Z,25
2017-11-29T13:56:03.178Z,20
2017-11-29T13:57:14.288Z,20
2017-11-29T13:58:24.413Z,15
2017-11-29T13:59:34.483Z,15
2017-11-29T14:00:44.556Z,15
2017-11-29T14:01:54.381Z,20
2017-11-29T14:03:04.775Z,20
2017-11-29T14:04:15.377Z,15
2017-11-29T14:05:26.865Z,15
2017-11-29T14:06:38.607Z,15
2017-11-29T14:07:49.948Z,15
2017-11-29T14:09:01.438Z,15
2017-11-29T14:10:12.489Z,15
2017-11-29T14:11:24.800Z,15
2017-11-29T14:12:36.538Z,15
2017-11-29T14:13:47.665Z,15
2017-11-29T14:14:58.851Z,15
2017-11-29T14:16:10.221Z,15
2017-11-29T14:17:21.286Z,15
2017-11-29T14:18:33.288Z,15
2017-11-29T14:19:45.668Z,15
2017-11-29T14:20:57.568Z,15
2017-11-29T14:22:09.940Z,15
2017-11-29T14:23:22.003Z,10
2017-11-29T14:24:34.313Z,10
2017-11-29T14:25:46.317Z,10
2017-11-29T14:26:57.346Z,5
2017-11-29T14:28:09.354Z,5
2017-11-29T14:29:19.401Z,5
2017-11-29T14:30:29.534Z,5
2017-11-29T14:31:39.505Z,5
2017-11-29T14:32:49.442Z,5
2017-11-29T14:33:59.634Z,5
2017-11-29T14:35:09.736Z,5
2017-11-29T14:36:19.854Z,5
2017-11-29T14:37:29.986Z,5
2017-11-29T14:38:39.801Z,5
2017-11-29T14:39:49.630Z,5
2017-11-29T14:40:59.824Z,5
2017-11-29T14:42:10.000Z,5
2017-11-29T14:43:19.931Z,5
2017-11-29T14:44:30.166Z,5
2017-11-29T14:45:40.372Z,5
2017-11-29T14:46:50.563Z,5
2017-11-29T14:48:00.968Z,5
2017-11-29T14:49:11.123Z,5
2017-11-29T14:50:21.294Z,5
2017-11-29T14:51:31.446Z,0
2017-11-29T14:52:43.405Z,0
2017-11-29T14:53:55.063Z,0
2017-11-29T14:55:06.623Z,0
2017-11-29T14:56:18.884Z,0
2017-11-29T14:57:31.081Z,0
2017-11-29T14:58:41.733Z,0
2017-11-29T14:59:51.647Z,0
2017-11-29T15:01:01.936Z,0
2017-11-29T15:02:15.289Z,0
2017-11-29T15:03:26.984Z,0
2017-11-29T15:04:40.640Z,0
2017-11-29T15:05:52.876Z,0
2017-11-29T15:07:04.824Z,0
2017-11-29T15:08:15.501Z,0
2017-11-29T15:09:25.125Z,0
2017-11-29T15:10:35.118Z,0
2017-11-29T15:11:44.834Z,0
2017-11-29T15:12:55.461Z,0
2017-11-29T15:14:06.825Z,0
2017-11-29T15:15:17.911Z,0
2017-11-29T15:16:28.877Z,0
2017-11-29T15:17:39.885Z,0
2017-11-29T15:18:51.228Z,0
2017-11-29T15:20:02.499Z,0
2017-11-29T15:21:13.043Z,0
2017-11-29T15:22:24.364Z,0
2017-11-29T15:23:35.601Z,0
2017-11-29T15:24:47.921Z,0
2017-11-29T15:25:58.461Z,0
2017-11-29T15:27:11.414Z,0
2017-11-29T15:28:23.059Z,0
2017-11-29T15:29:34.074Z,0
2017-11-29T15:30:46.292Z,0
2017-11-29T15:31:57.951Z,0
2017-11-29T15:33:09.397Z,0
2017-11-29T15:34:21.918Z,0
2017-11-29T15:35:35.123Z,0
2017-11-29T15:36:47.180Z,0
2017-11-29T15:37:59.856Z,0
2017-11-29T15:39:11.319Z,0
2017-11-29T15:40:22.857Z,0
2017-11-29T15:41:35.160Z,0
2017-11-29T15:42:46.637Z,0
2017-11-29T15:43:58.659Z,0
2017-11-29T15:45:10.570Z,0
2017-11-29T15:46:22.777Z,0
2017-11-29T15:47:33.118Z,0
2017-11-29T15:48:44.369Z,0
2017-11-29T15:49:54.813Z,0
2017-11-29T15:51:04.778Z,0
2017-11-29T15:52:15.200Z,0
2017-11-29T15:53:25.442Z,0
2017-11-29T15:54:35.876Z,0
2017-11-29T15:55:46.305Z,0
2017-11-29T15:56:56.692Z,0
2017-11-29T15:58:08.400Z,0
2017-11-29T15:59:18.659Z,0
2017-11-29T16:00:32.831Z,0
2017-11-29T16:01:48.589Z,0
2017-11-29T16:03:00.876Z,0
2017-11-29T16:04:13.420Z,0
2017-11-29T16:05:25.670Z,0
2017-11-29T16:06:38.480Z,0
2017-11-29T16:07:50.976Z,0
2017-11-29T16:09:02.980Z,0
2017-11-29T16:11:42.188Z,0
2017-11-29T16:12:55.431Z,0
2017-11-29T16:14:08.288Z,0
2017-11-29T16:15:20.983Z,0
2017-11-29T16:16:35.019Z,0
2017-11-29T16:17:46.437Z,0
2017-11-29T16:18:56.645Z,0
2017-11-29T16:20:06.645Z,0
2017-11-29T16:21:16.805Z,0
2017-11-29T16:22:27.029Z,0
2017-11-29T16:23:36.847Z,0
2017-11-29T16:24:46.683Z,0
2017-11-29T16:25:56.538Z,0
2017-11-29T16:27:06.613Z,0
2017-11-29T16:28:16.464Z,0
2017-11-29T16:29:26.282Z,0
2017-11-29T16:30:36.488Z,0
2017-11-29T16:31:46.646Z,0
2017-11-29T16:32:56.737Z,0
2017-11-29T16:34:08.352Z,0
2017-11-29T16:35:19.594Z,0
2017-11-29T16:36:29.450Z,0
2017-11-29T16:37:40.126Z,0
2017-11-29T16:38:51.848Z,0
2017-11-29T16:40:03.679Z,0
2017-11-29T16:41:14.372Z,0
2017-11-29T16:42:25.056Z,0
2017-11-29T16:43:35.311Z,0
2017-11-29T16:44:45.486Z,0
2017-11-29T16:45:55.722Z,0
2017-11-29T16:47:05.603Z,0
2017-11-29T16:48:15.751Z,0
2017-11-29T16:49:26.689Z,0
2017-11-29T16:50:37.452Z,0
2017-11-29T16:51:48.337Z,0
2017-11-29T16:52:59.719Z,0
2017-11-29T16:54:10.457Z,0
2017-11-29T16:55:20.860Z,0
2017-11-29T16:56:30.772Z,0
2017-11-29T16:57:41.106Z,0
2017-11-29T16:58:51.317Z,0
2017-11-29T17:00:01.523Z,0
2017-11-29T17:01:11.481Z,0
2017-11-29T17:02:20.589Z,0
2017-11-29T17:03:30.723Z,0
2017-11-29T17:04:40.958Z,0
2017-11-29T17:05:51.240Z,0
2017-11-29T17:07:03.172Z,0
2017-11-29T17:08:15.343Z,0
2017-11-29T17:09:26.576Z,0
2017-11-29T17:10:37.983Z,0
2017-11-29T17:11:48.954Z,0
2017-11-29T17:12:59.025Z,0
2017-11-29T17:14:09.001Z,0
2017-11-29T17:15:19.261Z,0
2017-11-29T17:16:29.529Z,0
2017-11-29T17:17:39.185Z,0
2017-11-29T17:18:49.152Z,0
2017-11-29T17:19:59.414Z,0
2017-11-29T17:21:10.268Z,0
2017-11-29T17:22:21.782Z,0
2017-11-29T17:23:31.833Z,0
2017-11-29T17:24:41.784Z,0
2017-11-29T17:25:51.908Z,0
2017-11-29T17:27:02.048Z,0
2017-11-29T17:28:11.879Z,0
2017-11-29T17:29:21.716Z,0
2017-11-29T17:30:31.810Z,0
2017-11-29T17:31:41.901Z,0
2017-11-29T17:32:51.782Z,0